createdAt,value
2022-11-28T00:02:17.985Z,4.18
2022-11-28T00:04:44.544Z,3.80
2022-11-28T00:07:11.945Z,4.80
2022-11-28T00:09:38.497Z,3.40
2022-11-28T00:12:04.941Z,3.88
2022-11-28T00:14:31.241Z,3.30
2022-11-28T00:16:57.546Z,4.07
2022-11-28T00:19:23.837Z,3.13
2022-11-28T00:21:50.168Z,3.67
2022-11-28T00:24:16.475Z,3.40
2022-11-28T00:26:42.860Z,2.13
2022-11-28T00:29:10.446Z,4.03
2022-11-28T00:31:42.339Z,3.45
2022-11-28T00:34:11.051Z,2.85
2022-11-28T00:36:37.343Z,3.97
2022-11-28T00:39:04.843Z,3.13
2022-11-28T00:41:33.732Z,3.63
2022-11-28T00:44:00.161Z,4.13
2022-11-28T00:46:27.199Z,4.22
2022-11-28T00:48:53.825Z,3.60
2022-11-28T00:51:23.905Z,3.80
2022-11-28T00:53:52.057Z,3.28
2022-11-28T00:56:21.570Z,4.05
2022-11-28T00:58:49.528Z,3.90
2022-11-28T01:01:21.583Z,4.25
2022-11-28T01:03:49.543Z,4.28
2022-11-28T01:06:26.768Z,3.22
2022-11-28T01:08:53.630Z,3.80
2022-11-28T01:11:21.383Z,3.60
2022-11-28T01:13:48.169Z,3.38
2022-11-28T01:16:15.315Z,3.72
2022-11-28T01:18:41.882Z,3.47
2022-11-28T01:21:08.547Z,4.03
2022-11-28T01:23:35.286Z,3.70
2022-11-28T01:26:02.283Z,3.70
2022-11-28T01:28:29.426Z,3.47
2022-11-28T01:30:55.744Z,3.95
2022-11-28T01:33:22.053Z,3.72
2022-11-28T01:35:56.496Z,4.13
2022-11-28T01:38:22.993Z,3.55
2022-11-28T01:40:49.765Z,4.35
2022-11-28T01:43:16.088Z,3.25
2022-11-28T01:45:42.478Z,4.18
2022-11-28T01:48:11.631Z,4.15
2022-11-28T01:50:38.666Z,3.00
2022-11-28T01:53:09.014Z,4.25
2022-11-28T01:55:42.014Z,3.45
2022-11-28T01:58:11.312Z,4.28
2022-11-28T02:00:37.685Z,3.42
2022-11-28T02:03:12.925Z,3.97
2022-11-28T02:05:39.874Z,3.83
2022-11-28T02:08:07.895Z,3.90
2022-11-28T02:11:00.595Z,3.72
2022-11-28T02:13:45.256Z,4.50
2022-11-28T02:16:17.588Z,4.05
2022-11-28T02:18:54.332Z,3.85
2022-11-28T02:21:40.920Z,4.30
2022-11-28T02:24:35.416Z,3.85
2022-11-28T02:27:29.449Z,4.10
2022-11-28T02:30:06.400Z,4.43
2022-11-28T02:32:53.345Z,3.80
2022-11-28T02:35:26.461Z,3.90
2022-11-28T02:38:11.313Z,4.30
2022-11-28T02:41:07.969Z,4.25
2022-11-28T02:43:42.459Z,4.05
2022-11-28T02:46:34.392Z,4.00
2022-11-28T02:49:30.923Z,3.78
2022-11-28T02:52:02.010Z,4.07
2022-11-28T02:56:56.117Z,4.00
2022-11-28T02:59:32.468Z,4.03
2022-11-28T03:02:00.668Z,4.07
2022-11-28T03:04:40.305Z,4.70
2022-11-28T03:07:45.709Z,4.05
2022-11-28T03:10:33.668Z,4.25
2022-11-28T03:13:18.304Z,4.60
2022-11-28T03:16:10.231Z,4.82
2022-11-28T03:18:45.593Z,4.38
2022-11-28T03:21:16.773Z,4.63
2022-11-28T03:26:36.968Z,5.18
2022-11-28T03:29:12.138Z,5.05
2022-11-28T03:31:45.190Z,4.80
2022-11-28T03:34:15.548Z,5.32
2022-11-28T03:36:47.631Z,5.47
2022-11-28T03:39:18.131Z,5.22
2022-11-28T03:42:09.912Z,5.00
2022-11-28T03:44:45.514Z,5.40
2022-11-28T03:47:12.167Z,5.50
2022-11-28T03:49:43.567Z,5.63
2022-11-28T03:52:18.788Z,5.30
2022-11-28T03:54:56.762Z,5.38
2022-11-28T03:57:34.186Z,4.72
2022-11-28T04:00:07.154Z,4.60
2022-11-28T04:03:14.995Z,4.97
2022-11-28T04:05:53.925Z,4.82
2022-11-28T04:08:27.759Z,5.72
2022-11-28T04:11:05.830Z,4.63
2022-11-28T04:13:38.337Z,4.95
2022-11-28T04:16:09.923Z,4.93
2022-11-28T04:19:01.780Z,4.80
2022-11-28T04:21:34.696Z,4.82
2022-11-28T04:24:09.180Z,5.18
2022-11-28T04:26:38.572Z,5.18
2022-11-28T04:29:12.472Z,4.75
2022-11-28T04:31:40.869Z,4.78
2022-11-28T04:34:10.779Z,4.40
2022-11-28T04:36:40.120Z,4.50
2022-11-28T04:39:10.135Z,4.90
2022-11-28T04:41:42.638Z,4.90
2022-11-28T04:44:15.826Z,4.88
2022-11-28T04:46:50.975Z,5.07
2022-11-28T04:49:17.467Z,4.85
2022-11-28T04:52:10.224Z,4.55
2022-11-28T04:55:03.948Z,5.15
2022-11-28T04:57:35.186Z,4.88
2022-11-28T05:00:04.464Z,5.63
2022-11-28T05:02:32.287Z,5.13
2022-11-28T05:04:59.549Z,6.05
2022-11-28T05:07:25.891Z,5.25
2022-11-28T05:09:52.353Z,5.53
2022-11-28T05:12:18.724Z,5.57
2022-11-28T05:14:45.092Z,5.85
2022-11-28T05:17:13.315Z,5.15
2022-11-28T05:19:39.680Z,5.55
2022-11-28T05:22:06.355Z,5.93
2022-11-28T05:24:32.663Z,5.32
2022-11-28T05:26:59.026Z,5.50
2022-11-28T05:29:25.589Z,5.82
2022-11-28T05:31:52.175Z,6.05
2022-11-28T05:34:18.543Z,6.13
2022-11-28T05:36:44.837Z,5.57
2022-11-28T05:39:11.124Z,5.25
2022-11-28T05:41:37.567Z,5.15
2022-11-28T05:44:04.047Z,4.82
2022-11-28T05:46:30.420Z,4.35
2022-11-28T05:48:57.237Z,5.60
2022-11-28T05:51:23.549Z,4.43
2022-11-28T05:53:50.261Z,5.15
2022-11-28T05:56:18.877Z,5.05
2022-11-28T05:58:45.702Z,5.10
2022-11-28T06:01:15.592Z,5.15
2022-11-28T06:03:42.606Z,5.30
2022-11-28T06:06:20.587Z,4.40
2022-11-28T06:08:48.687Z,4.35
2022-11-28T06:11:16.278Z,4.40
2022-11-28T06:13:44.540Z,4.82
2022-11-28T06:16:14.054Z,4.72
2022-11-28T06:18:40.913Z,5.03
2022-11-28T06:21:08.907Z,5.05
2022-11-28T06:23:36.991Z,5.18
2022-11-28T06:26:12.218Z,4.63
2022-11-28T06:28:39.191Z,4.85
2022-11-28T06:31:10.943Z,5.00
2022-11-28T06:33:37.349Z,5.15
2022-11-28T06:36:05.777Z,5.07
2022-11-28T06:38:32.917Z,5.03
2022-11-28T06:41:01.506Z,4.75
2022-11-28T06:43:28.269Z,5.20
2022-11-28T06:45:54.668Z,5.07
2022-11-28T06:48:21.517Z,5.95
2022-11-28T06:50:48.302Z,5.53
2022-11-28T06:53:14.613Z,5.75
2022-11-28T06:55:40.996Z,5.47
2022-11-28T06:58:07.344Z,6.18
2022-11-28T07:00:34.340Z,5.20
2022-11-28T07:03:00.687Z,5.30
2022-11-28T07:05:28.402Z,5.88
2022-11-28T07:07:54.962Z,5.40
2022-11-28T07:10:22.267Z,5.20
2022-11-28T07:12:53.923Z,5.57
2022-11-28T07:15:20.715Z,4.78
2022-11-28T07:17:47.084Z,5.13
2022-11-28T07:20:13.890Z,5.93
2022-11-28T07:22:40.330Z,5.70
2022-11-28T07:25:07.291Z,6.70
2022-11-28T07:27:33.584Z,6.50
2022-11-28T07:29:59.872Z,6.13
2022-11-28T07:32:26.206Z,5.90
2022-11-28T07:34:52.608Z,6.22
2022-11-28T07:37:18.964Z,6.63
2022-11-28T07:39:45.564Z,6.43
2022-11-28T07:42:12.186Z,7.00
2022-11-28T07:44:38.505Z,6.15
2022-11-28T07:47:04.997Z,6.22
2022-11-28T07:49:31.428Z,6.32
2022-11-28T07:51:57.951Z,6.63
2022-11-28T07:54:24.440Z,6.57
2022-11-28T07:57:12.801Z,6.20
2022-11-28T07:59:37.097Z,6.50
2022-11-28T08:02:04.105Z,6.57
2022-11-28T08:04:30.568Z,6.10
2022-11-28T08:06:56.936Z,9.10
2022-11-28T08:09:23.221Z,20.08
2022-11-28T08:11:52.677Z,7.80
2022-11-28T08:14:19.825Z,7.03
2022-11-28T08:16:46.368Z,6.95
2022-11-28T08:19:13.092Z,6.97
2022-11-28T08:21:39.505Z,6.22
2022-11-28T08:24:07.899Z,6.38
2022-11-28T08:26:35.141Z,6.60
2022-11-28T08:29:02.980Z,7.97
2022-11-28T08:31:35.204Z,9.02
2022-11-28T08:34:04.745Z,8.02
2022-11-28T08:36:31.672Z,8.57
2022-11-28T08:39:30.824Z,8.05
2022-11-28T08:41:47.517Z,7.28
2022-11-28T08:44:13.848Z,7.07
2022-11-28T08:46:40.144Z,7.10
2022-11-28T08:49:07.374Z,6.90
2022-11-28T08:51:33.711Z,6.78
2022-11-28T08:54:00.260Z,6.32
2022-11-28T08:56:27.088Z,6.47
2022-11-28T08:58:54.503Z,6.72
2022-11-28T09:01:23.504Z,6.82
2022-11-28T09:03:50.473Z,6.00
2022-11-28T09:06:17.874Z,6.57
2022-11-28T09:08:44.860Z,6.50
2022-11-28T09:11:13.768Z,7.30
2022-11-28T09:13:40.085Z,7.78
2022-11-28T09:16:07.251Z,10.05
2022-11-28T09:18:33.676Z,7.40
2022-11-28T09:21:09.060Z,9.32
2022-11-28T09:23:36.920Z,7.60
2022-11-28T09:26:11.578Z,6.90
2022-11-28T09:28:38.189Z,7.72
2022-11-28T09:31:06.074Z,5.38
2022-11-28T09:33:32.952Z,6.10
2022-11-28T09:36:03.575Z,6.90
2022-11-28T09:38:29.906Z,7.35
2022-11-28T09:40:56.295Z,6.50
2022-11-28T09:43:38.238Z,6.88
2022-11-28T09:46:07.835Z,7.10
2022-11-28T09:48:50.998Z,6.70
2022-11-28T09:51:31.053Z,6.20
2022-11-28T09:54:11.083Z,5.70
2022-11-28T09:56:37.456Z,5.70
2022-11-28T09:59:11.156Z,5.05
2022-11-28T10:02:00.413Z,5.45
2022-11-28T10:04:50.943Z,5.22
2022-11-28T10:07:26.540Z,5.13
2022-11-28T10:10:08.430Z,5.00
2022-11-28T10:12:49.781Z,4.95
2022-11-28T10:15:54.546Z,4.75
2022-11-28T10:18:34.894Z,5.22
2022-11-28T10:21:10.172Z,4.53
2022-11-28T10:23:44.819Z,5.20
2022-11-28T10:26:28.850Z,4.72
2022-11-28T10:29:01.003Z,4.90
2022-11-28T10:31:30.366Z,4.53
2022-11-28T10:34:30.255Z,4.38
2022-11-28T10:37:23.863Z,4.68
2022-11-28T10:39:50.529Z,5.13
2022-11-28T10:42:34.444Z,4.90
2022-11-28T10:45:03.605Z,4.55
2022-11-28T10:47:45.190Z,4.63
2022-11-28T10:50:46.521Z,4.03
2022-11-28T10:53:31.188Z,4.35
2022-11-28T10:56:11.732Z,4.43
2022-11-28T10:58:59.874Z,4.30
2022-11-28T11:01:36.937Z,4.35
2022-11-28T11:04:04.063Z,13.05
2022-11-28T11:06:41.397Z,6.00
2022-11-28T11:09:14.423Z,4.85
2022-11-28T11:11:53.879Z,4.57
2022-11-28T11:14:33.847Z,4.43
2022-11-28T11:17:00.244Z,4.10
2022-11-28T11:19:30.883Z,4.45
2022-11-28T11:21:59.837Z,3.80
2022-11-28T11:24:26.392Z,3.60
2022-11-28T11:26:52.690Z,3.67
2022-11-28T11:29:24.055Z,3.60
2022-11-28T11:31:53.908Z,4.05
2022-11-28T11:34:22.530Z,4.30
2022-11-28T11:36:50.413Z,4.45
2022-11-28T11:39:23.657Z,5.10
2022-11-28T11:42:09.334Z,4.30
2022-11-28T11:44:36.535Z,4.65
2022-11-28T11:47:06.250Z,4.35
2022-11-28T11:49:44.022Z,6.78
2022-11-28T11:52:13.807Z,6.80
2022-11-28T11:54:54.388Z,6.40
2022-11-28T11:57:34.497Z,5.22
2022-11-28T12:00:11.205Z,5.37
2022-11-28T12:02:46.908Z,6.13
2022-11-28T12:05:19.404Z,6.40
2022-11-28T12:07:58.365Z,6.18
2022-11-28T12:10:28.254Z,6.97
2022-11-28T12:12:54.989Z,6.43
2022-11-28T12:15:55.220Z,5.55
2022-11-28T12:18:37.098Z,6.00
2022-11-28T12:21:32.623Z,6.72
2022-11-28T12:24:15.612Z,6.03
2022-11-28T12:26:50.623Z,5.70
2022-11-28T12:29:46.881Z,6.35
2022-11-28T12:32:41.169Z,7.07
2022-11-28T12:35:22.565Z,7.88
2022-11-28T12:38:10.196Z,7.68
2022-11-28T12:41:02.793Z,8.80
2022-11-28T12:43:50.426Z,9.52
2022-11-28T12:46:49.739Z,8.98
2022-11-28T12:50:00.948Z,7.95
2022-11-28T12:52:41.951Z,6.55
2022-11-28T12:55:34.247Z,6.85
2022-11-28T13:00:34.148Z,5.53
2022-11-28T13:03:34.695Z,6.38
2022-11-28T13:06:32.124Z,6.50
2022-11-28T13:09:03.186Z,6.78
2022-11-28T13:14:21.713Z,6.40
2022-11-28T13:16:52.282Z,6.55
2022-11-28T13:19:28.530Z,6.05
2022-11-28T13:22:09.872Z,6.72
2022-11-28T13:24:36.168Z,6.53
2022-11-28T13:27:41.684Z,6.65
2022-11-28T13:30:19.246Z,6.32
2022-11-28T13:33:24.129Z,5.70
2022-11-28T13:35:52.299Z,6.55
2022-11-28T13:38:36.074Z,6.65
2022-11-28T13:41:35.796Z,5.80
2022-11-28T13:44:15.510Z,6.78
2022-11-28T13:46:45.944Z,6.20
2022-11-28T13:49:21.808Z,8.20
2022-11-28T13:51:48.839Z,6.57
2022-11-28T13:54:19.004Z,6.30
2022-11-28T13:56:47.730Z,6.25
2022-11-28T13:59:23.124Z,6.75
2022-11-28T14:01:57.780Z,6.60
2022-11-28T14:04:25.730Z,6.40
2022-11-28T14:07:00.685Z,6.55
2022-11-28T14:09:26.960Z,5.97
2022-11-28T14:12:16.510Z,6.30
2022-11-28T14:15:04.343Z,5.32
2022-11-28T14:17:40.550Z,5.90
2022-11-28T14:20:24.362Z,4.80
2022-11-28T14:23:22.618Z,5.25
2022-11-28T14:25:51.288Z,5.30
2022-11-28T14:28:27.330Z,4.65
2022-11-28T14:31:10.983Z,5.30
2022-11-28T14:33:42.593Z,5.03
2022-11-28T14:36:24.008Z,5.97
2022-11-28T14:39:10.528Z,5.65
2022-11-28T14:42:04.893Z,5.13
2022-11-28T14:44:52.849Z,5.70
2022-11-28T14:47:54.638Z,4.60
2022-11-28T14:50:20.889Z,4.25
2022-11-28T14:52:47.939Z,4.55
2022-11-28T14:55:23.525Z,4.03
2022-11-28T14:57:55.924Z,4.22
2022-11-28T15:00:31.791Z,4.13
2022-11-28T15:03:26.735Z,4.38
2022-11-28T15:06:02.132Z,4.38
2022-11-28T15:08:39.539Z,4.40
2022-11-28T15:11:14.863Z,4.43
2022-11-28T15:14:04.466Z,4.18
2022-11-28T15:16:32.664Z,5.15
2022-11-28T15:19:06.293Z,8.00
2022-11-28T15:21:43.477Z,12.55
2022-11-28T15:24:30.425Z,8.07
2022-11-28T15:27:07.212Z,6.72
2022-11-28T15:29:35.004Z,6.20
2022-11-28T15:32:04.634Z,6.15
2022-11-28T15:34:33.797Z,6.55
2022-11-28T15:37:03.527Z,6.18
2022-11-28T15:39:39.260Z,7.85
2022-11-28T15:42:24.168Z,7.50
2022-11-28T15:45:10.880Z,8.02
2022-11-28T15:47:38.356Z,8.45
2022-11-28T15:50:17.007Z,8.75
2022-11-28T15:53:01.253Z,9.30
2022-11-28T15:55:31.417Z,8.02
2022-11-28T15:58:20.944Z,8.02
2022-11-28T16:01:12.652Z,8.20
2022-11-28T16:03:56.488Z,8.13
2022-11-28T16:06:26.338Z,8.38
2022-11-28T16:08:56.179Z,9.18
2022-11-28T16:11:25.192Z,9.05
2022-11-28T16:13:53.900Z,8.18
2022-11-28T16:16:24.978Z,8.52
2022-11-28T16:21:28.131Z,9.40
2022-11-28T16:23:54.614Z,10.30
2022-11-28T16:26:32.248Z,9.93
2022-11-28T16:29:19.032Z,9.63
2022-11-28T16:31:45.600Z,9.27
2022-11-28T16:34:13.999Z,9.70
2022-11-28T16:36:45.661Z,9.48
2022-11-28T16:39:14.698Z,9.60
2022-11-28T16:42:04.339Z,9.18
2022-11-28T16:44:30.872Z,9.52
2022-11-28T16:46:58.579Z,9.77
2022-11-28T16:49:38.390Z,11.00
2022-11-28T16:52:49.998Z,10.88
2022-11-28T16:55:40.297Z,10.40
2022-11-28T16:58:16.086Z,12.35
2022-11-28T17:00:45.566Z,11.82
2022-11-28T17:03:57.682Z,11.90
2022-11-28T17:06:36.889Z,11.93
2022-11-28T17:09:09.020Z,12.25
2022-11-28T17:11:37.690Z,11.77
2022-11-28T17:14:10.092Z,13.20
2022-11-28T17:16:38.145Z,11.48
2022-11-28T17:19:05.257Z,14.60
2022-11-28T17:21:41.811Z,13.23
2022-11-28T17:24:18.702Z,14.35
2022-11-28T17:26:45.434Z,15.00
2022-11-28T17:29:14.797Z,15.77
2022-11-28T17:31:42.948Z,14.02
2022-11-28T17:34:21.478Z,14.60
2022-11-28T17:36:47.962Z,14.40
2022-11-28T17:39:14.825Z,14.27
2022-11-28T17:41:42.013Z,15.75
2022-11-28T17:44:17.446Z,17.60
2022-11-28T17:46:43.749Z,16.92
2022-11-28T17:49:10.298Z,14.88
2022-11-28T17:51:36.942Z,17.17
2022-11-28T17:54:03.395Z,15.80
2022-11-28T17:56:31.115Z,14.55
2022-11-28T17:58:57.432Z,16.75
2022-11-28T18:01:27.332Z,16.88
2022-11-28T18:03:53.757Z,17.17
2022-11-28T18:06:21.824Z,17.05
2022-11-28T18:08:50.319Z,17.25
2022-11-28T18:11:18.817Z,17.48
2022-11-28T18:13:45.314Z,18.35
2022-11-28T18:16:14.000Z,17.20
2022-11-28T18:18:40.497Z,17.63
2022-11-28T18:21:08.771Z,17.42
2022-11-28T18:23:38.617Z,20.35
2022-11-28T18:26:13.089Z,16.98
2022-11-28T18:28:40.306Z,19.35
2022-11-28T18:31:25.527Z,19.50
2022-11-28T18:33:57.404Z,21.02
2022-11-28T18:36:28.513Z,21.30
2022-11-28T18:38:59.435Z,21.17
2022-11-28T18:43:56.893Z,20.58
2022-11-28T18:46:23.776Z,22.08
2022-11-28T18:48:50.227Z,20.92
2022-11-28T18:51:20.038Z,21.92
2022-11-28T18:53:47.675Z,22.77
2022-11-28T18:56:14.646Z,22.85
2022-11-28T18:58:46.011Z,23.25
2022-11-28T19:01:13.696Z,22.02
2022-11-28T19:03:41.247Z,25.95
2022-11-28T19:06:10.459Z,22.65
2022-11-28T19:08:37.417Z,22.15
2022-11-28T19:11:09.308Z,23.77
2022-11-28T19:13:39.681Z,23.45
2022-11-28T19:16:11.799Z,22.00
2022-11-28T19:18:39.107Z,25.85
2022-11-28T19:21:06.501Z,26.95
2022-11-28T19:23:32.838Z,27.77
2022-11-28T19:26:10.615Z,24.92
2022-11-28T19:28:38.475Z,25.05
2022-11-28T19:31:09.028Z,24.17
2022-11-28T19:33:35.379Z,23.52
2022-11-28T19:36:06.816Z,25.08
2022-11-28T19:38:34.654Z,27.25
2022-11-28T19:41:07.911Z,23.08
2022-11-28T19:43:35.179Z,23.50
2022-11-28T19:46:02.381Z,24.83
2022-11-28T19:48:30.252Z,23.30
2022-11-28T19:50:57.212Z,24.00
2022-11-28T19:53:24.597Z,23.13
2022-11-28T19:55:51.694Z,24.65
2022-11-28T19:58:18.270Z,23.92
2022-11-28T20:00:44.577Z,24.02
2022-11-28T20:03:10.917Z,23.70
2022-11-28T20:05:40.009Z,23.38
2022-11-28T20:08:07.673Z,23.90
2022-11-28T20:10:42.791Z,22.48
2022-11-28T20:13:09.074Z,20.20
2022-11-28T20:15:36.539Z,21.88
2022-11-28T20:18:02.931Z,22.13
2022-11-28T20:20:29.719Z,23.90
2022-11-28T20:22:57.403Z,24.42
2022-11-28T20:25:23.704Z,24.30
2022-11-28T20:27:50.020Z,23.40
2022-11-28T20:30:16.556Z,24.55
2022-11-28T20:32:43.077Z,25.00
2022-11-28T20:35:09.748Z,24.38
2022-11-28T20:37:37.816Z,27.35
2022-11-28T20:40:04.820Z,25.17
2022-11-28T20:42:39.481Z,26.55
2022-11-28T20:45:06.898Z,27.08
2022-11-28T20:47:34.560Z,25.08
2022-11-28T20:50:00.877Z,25.15
2022-11-28T20:52:27.181Z,24.63
2022-11-28T20:54:53.477Z,24.10
2022-11-28T20:57:21.732Z,23.33
2022-11-28T20:59:48.464Z,25.85
2022-11-28T21:02:15.537Z,25.92
2022-11-28T21:04:41.939Z,24.58
2022-11-28T21:07:08.674Z,23.85
2022-11-28T21:09:35.004Z,23.90
2022-11-28T21:12:01.300Z,24.23
2022-11-28T21:14:28.888Z,24.25
2022-11-28T21:16:56.584Z,22.02
2022-11-28T21:19:23.079Z,21.58
2022-11-28T21:21:49.414Z,22.52
2022-11-28T21:24:15.737Z,21.85
2022-11-28T21:26:46.647Z,23.17
2022-11-28T21:29:16.430Z,23.67
2022-11-28T21:31:44.333Z,23.33
2022-11-28T21:34:14.077Z,22.83
2022-11-28T21:36:40.433Z,22.73
2022-11-28T21:39:06.832Z,20.48
2022-11-28T21:41:33.393Z,21.50
2022-11-28T21:44:00.269Z,21.17
2022-11-28T21:46:27.117Z,21.17
2022-11-28T21:48:53.653Z,21.70
2022-11-28T21:51:22.985Z,22.02
2022-11-28T21:53:49.932Z,21.13
2022-11-28T21:56:16.341Z,20.48
2022-11-28T21:58:42.726Z,20.35
2022-11-28T22:01:11.715Z,21.08
2022-11-28T22:03:39.970Z,19.15
2022-11-28T22:06:18.023Z,19.90
2022-11-28T22:08:45.076Z,20.30
2022-11-28T22:11:13.050Z,19.83
2022-11-28T22:13:41.988Z,20.00
2022-11-28T22:16:10.536Z,18.80
2022-11-28T22:18:36.943Z,20.50
2022-11-28T22:21:22.321Z,19.15
2022-11-28T22:23:52.343Z,19.65
2022-11-28T22:26:18.813Z,17.83
2022-11-28T22:28:50.414Z,19.67
2022-11-28T22:31:19.772Z,19.73
2022-11-28T22:33:46.324Z,18.55
2022-11-28T22:36:15.757Z,19.23
2022-11-28T22:38:43.589Z,19.42
2022-11-28T22:41:15.109Z,18.27
2022-11-28T22:43:41.473Z,18.90
2022-11-28T22:46:08.504Z,18.25
2022-11-28T22:48:35.457Z,19.55
2022-11-28T22:51:14.344Z,19.63
2022-11-28T22:53:41.041Z,19.40
2022-11-28T22:56:10.864Z,19.27
2022-11-28T22:58:42.434Z,17.58
2022-11-28T23:01:13.831Z,19.25
2022-11-28T23:06:15.189Z,17.30
2022-11-28T23:08:42.232Z,17.83
2022-11-28T23:11:11.067Z,19.23
2022-11-28T23:13:38.544Z,19.02
2022-11-28T23:16:12.030Z,19.10
2022-11-28T23:18:38.745Z,18.20
2022-11-28T23:21:05.769Z,18.88
2022-11-28T23:23:33.288Z,19.58
2022-11-28T23:26:08.080Z,18.30
2022-11-28T23:28:35.158Z,18.75
2022-11-28T23:31:29.138Z,17.98
2022-11-28T23:33:56.935Z,19.05
2022-11-28T23:36:26.043Z,19.35
2022-11-28T23:38:55.090Z,16.50
2022-11-28T23:41:21.542Z,18.02
2022-11-28T23:43:47.972Z,17.88
2022-11-28T23:46:15.838Z,18.83
2022-11-28T23:48:43.588Z,18.77
2022-11-28T23:51:12.681Z,19.83
2022-11-28T23:53:40.211Z,19.38
2022-11-28T23:56:12.585Z,18.95
2022-11-28T23:58:39.244Z,16.23
